sensor_id;sensor_type;location;lat;lon;timestamp;pressure;altitude;pressure_sealevel;temperature;humidity
28008;BME280;15333;50.010;20.020;2023-07-29T00:00:31;98189.38;;;18.83;100.00
28008;BME280;15333;50.010;20.020;2023-07-29T00:03:53;98192.75;;;18.85;100.00
28008;BME280;15333;50.010;20.020;2023-07-29T00:06:54;98188.56;;;18.83;100.00
28008;BME280;15333;50.010;20.020;2023-07-29T00:09:55;98182.03;;;18.69;100.00
28008;BME280;15333;50.010;20.020;2023-07-29T00:12:55;98187.22;;;18.56;100.00
28008;BME280;15333;50.010;20.020;2023-07-29T00:15:56;98188.91;;;18.57;100.00
28008;BME280;15333;50.010;20.020;2023-07-29T00:18:57;98193.84;;;18.53;100.00
28008;BME280;15333;50.010;20.020;2023-07-29T00:21:58;98194.06;;;18.44;100.00
28008;BME280;15333;50.010;20.020;2023-07-29T00:24:59;98195.84;;;18.28;100.00
28008;BME280;15333;50.010;20.020;2023-07-29T00:28:00;98193.69;;;18.24;100.00
28008;BME280;15333;50.010;20.020;2023-07-29T00:31:02;98194.88;;;18.21;100.00
28008;BME280;15333;50.010;20.020;2023-07-29T00:34:03;98191.16;;;18.22;100.00
28008;BME280;15333;50.010;20.020;2023-07-29T00:37:04;98187.19;;;18.10;100.00
28008;BME280;15333;50.010;20.020;2023-07-29T00:40:15;98183.50;;;18.03;100.00
28008;BME280;15333;50.010;20.020;2023-07-29T00:43:17;98183.22;;;17.90;100.00
28008;BME280;15333;50.010;20.020;2023-07-29T00:46:18;98187.97;;;17.88;100.00
28008;BME280;15333;50.010;20.020;2023-07-29T00:49:20;98188.31;;;17.85;100.00
28008;BME280;15333;50.010;20.020;2023-07-29T00:52:22;98198.66;;;17.81;100.00
28008;BME280;15333;50.010;20.020;2023-07-29T00:55:23;98194.81;;;17.76;100.00
28008;BME280;15333;50.010;20.020;2023-07-29T00:58:24;98191.78;;;17.63;100.00
28008;BME280;15333;50.010;20.020;2023-07-29T01:01:25;98192.47;;;17.48;100.00
28008;BME280;15333;50.010;20.020;2023-07-29T01:04:27;98192.88;;;17.37;100.00
28008;BME280;15333;50.010;20.020;2023-07-29T01:11:03;98205.78;;;16.95;100.00
28008;BME280;15333;50.010;20.020;2023-07-29T01:14:47;98206.63;;;16.95;100.00
28008;BME280;15333;50.010;20.020;2023-07-29T01:17:55;98201.06;;;17.05;100.00
28008;BME280;15333;50.010;20.020;2023-07-29T01:21:07;98208.50;;;16.95;100.00
28008;BME280;15333;50.010;20.020;2023-07-29T01:24:08;98207.47;;;16.79;100.00
28008;BME280;15333;50.010;20.020;2023-07-29T01:27:09;98205.81;;;16.62;100.00
28008;BME280;15333;50.010;20.020;2023-07-29T01:30:10;98212.84;;;16.47;100.00
28008;BME280;15333;50.010;20.020;2023-07-29T01:33:18;98208.28;;;16.39;100.00
28008;BME280;15333;50.010;20.020;2023-07-29T01:36:22;98214.50;;;16.32;100.00
28008;BME280;15333;50.010;20.020;2023-07-29T01:39:27;98211.25;;;16.20;100.00
28008;BME280;15333;50.010;20.020;2023-07-29T01:42:31;98212.63;;;16.24;100.00
28008;BME280;15333;50.010;20.020;2023-07-29T01:45:32;98213.81;;;16.22;100.00
28008;BME280;15333;50.010;20.020;2023-07-29T01:48:36;98220.22;;;16.21;100.00
28008;BME280;15333;50.010;20.020;2023-07-29T01:51:37;98234.56;;;16.21;100.00
28008;BME280;15333;50.010;20.020;2023-07-29T01:54:38;98216.84;;;16.35;100.00
28008;BME280;15333;50.010;20.020;2023-07-29T01:57:38;98215.94;;;16.60;100.00
28008;BME280;15333;50.010;20.020;2023-07-29T02:00:39;98218.97;;;16.73;100.00
28008;BME280;15333;50.010;20.020;2023-07-29T02:03:40;98203.25;;;16.85;100.00
28008;BME280;15333;50.010;20.020;2023-07-29T02:06:42;98214.22;;;17.00;100.00
28008;BME280;15333;50.010;20.020;2023-07-29T02:09:42;98213.53;;;17.06;100.00
28008;BME280;15333;50.010;20.020;2023-07-29T02:12:43;98209.13;;;17.13;100.00
28008;BME280;15333;50.010;20.020;2023-07-29T02:15:44;98208.47;;;17.11;100.00
28008;BME280;15333;50.010;20.020;2023-07-29T02:18:45;98206.63;;;17.11;100.00
28008;BME280;15333;50.010;20.020;2023-07-29T02:21:46;98208.47;;;17.19;100.00
28008;BME280;15333;50.010;20.020;2023-07-29T02:24:47;98204.41;;;17.07;100.00
28008;BME280;15333;50.010;20.020;2023-07-29T02:27:48;98209.81;;;17.07;100.00
28008;BME280;15333;50.010;20.020;2023-07-29T02:31:09;98209.13;;;17.13;100.00
28008;BME280;15333;50.010;20.020;2023-07-29T02:34:10;98213.53;;;17.06;100.00
28008;BME280;15333;50.010;20.020;2023-07-29T02:37:11;98218.63;;;16.93;100.00
28008;BME280;15333;50.010;20.020;2023-07-29T02:40:11;98226.72;;;16.84;100.00
28008;BME280;15333;50.010;20.020;2023-07-29T02:43:13;98215.59;;;16.96;100.00
28008;BME280;15333;50.010;20.020;2023-07-29T02:46:13;98210.13;;;17.20;100.00
28008;BME280;15333;50.010;20.020;2023-07-29T02:49:14;98221.31;;;17.17;100.00
28008;BME280;15333;50.010;20.020;2023-07-29T02:52:15;98214.22;;;17.16;100.00
28008;BME280;15333;50.010;20.020;2023-07-29T02:55:16;98222.00;;;17.11;100.00
28008;BME280;15333;50.010;20.020;2023-07-29T02:58:17;98219.94;;;17.13;100.00
28008;BME280;15333;50.010;20.020;2023-07-29T03:01:18;98209.81;;;17.15;100.00
28008;BME280;15333;50.010;20.020;2023-07-29T03:04:19;98207.63;;;17.18;100.00
28008;BME280;15333;50.010;20.020;2023-07-29T03:07:20;98205.25;;;17.23;100.00
28008;BME280;15333;50.010;20.020;2023-07-29T03:10:21;98211.50;;;17.24;100.00
28008;BME280;15333;50.010;20.020;2023-07-29T03:13:23;98221.28;;;17.33;100.00
28008;BME280;15333;50.010;20.020;2023-07-29T03:16:24;98229.00;;;17.52;100.00
28008;BME280;15333;50.010;20.020;2023-07-29T03:19:29;98229.81;;;17.69;100.00
28008;BME280;15333;50.010;20.020;2023-07-29T03:22:29;98239.69;;;18.01;100.00
28008;BME280;15333;50.010;20.020;2023-07-29T03:25:31;98238.66;;;18.02;100.00
28008;BME280;15333;50.010;20.020;2023-07-29T03:28:32;98243.09;;;17.95;100.00
28008;BME280;15333;50.010;20.020;2023-07-29T03:31:34;98241.06;;;17.97;100.00
28008;BME280;15333;50.010;20.020;2023-07-29T03:34:35;98250.25;;;17.88;100.00
28008;BME280;15333;50.010;20.020;2023-07-29T03:37:36;98253.28;;;17.85;100.00
28008;BME280;15333;50.010;20.020;2023-07-29T03:40:38;98250.75;;;17.83;100.00
28008;BME280;15333;50.010;20.020;2023-07-29T03:43:39;98251.53;;;18.00;100.00
28008;BME280;15333;50.010;20.020;2023-07-29T03:46:40;98251.41;;;17.93;100.00
28008;BME280;15333;50.010;20.020;2023-07-29T03:49:43;98242.81;;;17.82;100.00
28008;BME280;15333;50.010;20.020;2023-07-29T03:52:44;98252.66;;;17.75;100.00
28008;BME280;15333;50.010;20.020;2023-07-29T03:55:45;98255.38;;;17.67;100.00
28008;BME280;15333;50.010;20.020;2023-07-29T03:58:47;98258.78;;;17.69;100.00
28008;BME280;15333;50.010;20.020;2023-07-29T04:01:50;98254.00;;;17.79;100.00
28008;BME280;15333;50.010;20.020;2023-07-29T04:04:51;98255.69;;;17.80;100.00
28008;BME280;15333;50.010;20.020;2023-07-29T04:07:53;98264.34;;;17.75;100.00
28008;BME280;15333;50.010;20.020;2023-07-29T04:10:54;98257.38;;;17.81;100.00
28008;BME280;15333;50.010;20.020;2023-07-29T04:13:56;98262.41;;;17.84;100.00
28008;BME280;15333;50.010;20.020;2023-07-29T04:16:56;98257.72;;;17.78;100.00
28008;BME280;15333;50.010;20.020;2023-07-29T04:19:57;98258.38;;;17.80;100.00
28008;BME280;15333;50.010;20.020;2023-07-29T04:23:03;98261.06;;;17.88;100.00
28008;BME280;15333;50.010;20.020;2023-07-29T04:26:04;98255.94;;;18.01;100.00
28008;BME280;15333;50.010;20.020;2023-07-29T04:29:05;98253.56;;;17.98;100.00
28008;BME280;15333;50.010;20.020;2023-07-29T04:32:06;98256.25;;;18.06;100.00
28008;BME280;15333;50.010;20.020;2023-07-29T04:35:08;98257.94;;;18.07;100.00
28008;BME280;15333;50.010;20.020;2023-07-29T04:38:11;98262.59;;;18.21;100.00
28008;BME280;15333;50.010;20.020;2023-07-29T04:41:12;98271.41;;;18.23;100.00
28008;BME280;15333;50.010;20.020;2023-07-29T04:44:13;98268.69;;;18.23;100.00
28008;BME280;15333;50.010;20.020;2023-07-29T04:47:14;98273.09;;;18.24;100.00
28008;BME280;15333;50.010;20.020;2023-07-29T04:50:15;98268.63;;;18.39;100.00
28008;BME280;15333;50.010;20.020;2023-07-29T04:53:16;98274.59;;;18.66;100.00
28008;BME280;15333;50.010;20.020;2023-07-29T04:56:17;98280.44;;;19.38;100.00
28008;BME280;15333;50.010;20.020;2023-07-29T04:59:19;98282.75;;;19.26;100.00
28008;BME280;15333;50.010;20.020;2023-07-29T05:02:20;98276.22;;;19.58;100.00
28008;BME280;15333;50.010;20.020;2023-07-29T05:05:21;98270.53;;;21.05;100.00
28008;BME280;15333;50.010;20.020;2023-07-29T05:08:23;98264.38;;;21.67;98.51
28008;BME280;15333;50.010;20.020;2023-07-29T05:11:24;98275.03;;;22.78;89.14
28008;BME280;15333;50.010;20.020;2023-07-29T05:14:28;98276.81;;;23.71;81.90
28008;BME280;15333;50.010;20.020;2023-07-29T05:17:29;98280.00;;;24.97;76.12
28008;BME280;15333;50.010;20.020;2023-07-29T05:20:30;98267.34;;;26.20;67.81
28008;BME280;15333;50.010;20.020;2023-07-29T05:23:30;98276.69;;;26.85;63.35
28008;BME280;15333;50.010;20.020;2023-07-29T05:26:32;98271.97;;;26.01;65.74
28008;BME280;15333;50.010;20.020;2023-07-29T05:29:33;98281.38;;;25.69;66.95
28008;BME280;15333;50.010;20.020;2023-07-29T05:32:34;98282.41;;;26.36;63.87
28008;BME280;15333;50.010;20.020;2023-07-29T05:35:35;98284.06;;;26.55;62.54
28008;BME280;15333;50.010;20.020;2023-07-29T05:38:36;98280.47;;;27.44;59.02
28008;BME280;15333;50.010;20.020;2023-07-29T05:41:36;98284.47;;;27.60;59.09
28008;BME280;15333;50.010;20.020;2023-07-29T05:44:38;98275.19;;;26.71;63.03
28008;BME280;15333;50.010;20.020;2023-07-29T05:47:39;98276.56;;;26.44;62.86
28008;BME280;15333;50.010;20.020;2023-07-29T05:50:40;98277.59;;;26.79;61.35
28008;BME280;15333;50.010;20.020;2023-07-29T05:53:41;98280.34;;;26.98;61.56
28008;BME280;15333;50.010;20.020;2023-07-29T05:56:42;98283.59;;;26.40;63.21
28008;BME280;15333;50.010;20.020;2023-07-29T05:59:43;98283.75;;;25.03;69.15
28008;BME280;15333;50.010;20.020;2023-07-29T06:02:44;98296.56;;;23.73;74.45
28008;BME280;15333;50.010;20.020;2023-07-29T06:05:50;98295.72;;;23.86;75.26
28008;BME280;15333;50.010;20.020;2023-07-29T06:08:51;98306.22;;;23.89;76.96
28008;BME280;15333;50.010;20.020;2023-07-29T06:11:51;98304.09;;;23.19;80.01
28008;BME280;15333;50.010;20.020;2023-07-29T06:14:53;98300.28;;;23.07;80.78
28008;BME280;15333;50.010;20.020;2023-07-29T06:17:53;98302.41;;;23.31;80.20
28008;BME280;15333;50.010;20.020;2023-07-29T06:20:54;98305.00;;;23.72;78.96
28008;BME280;15333;50.010;20.020;2023-07-29T06:23:55;98300.75;;;23.43;77.85
28008;BME280;15333;50.010;20.020;2023-07-29T06:26:56;98306.88;;;23.71;77.60
28008;BME280;15333;50.010;20.020;2023-07-29T06:29:57;98299.06;;;23.29;78.71
28008;BME280;15333;50.010;20.020;2023-07-29T06:32:58;98291.94;;;23.34;77.62
28008;BME280;15333;50.010;20.020;2023-07-29T06:35:58;98301.59;;;23.37;79.13
28008;BME280;15333;50.010;20.020;2023-07-29T06:38:59;98297.63;;;23.59;75.87
28008;BME280;15333;50.010;20.020;2023-07-29T06:42:00;98298.03;;;23.30;76.88
28008;BME280;15333;50.010;20.020;2023-07-29T06:45:06;98297.66;;;23.66;76.25
28008;BME280;15333;50.010;20.020;2023-07-29T06:48:07;98296.16;;;23.76;74.56
28008;BME280;15333;50.010;20.020;2023-07-29T06:51:08;98306.25;;;23.56;74.65
28008;BME280;15333;50.010;20.020;2023-07-29T06:54:09;98306.34;;;22.95;77.72
28008;BME280;15333;50.010;20.020;2023-07-29T06:57:10;98308.09;;;23.36;77.09
28008;BME280;15333;50.010;20.020;2023-07-29T07:00:10;98304.56;;;23.55;77.04
28008;BME280;15333;50.010;20.020;2023-07-29T07:03:11;98304.97;;;23.92;75.17
28008;BME280;15333;50.010;20.020;2023-07-29T07:06:12;98294.47;;;23.75;74.38
28008;BME280;15333;50.010;20.020;2023-07-29T07:09:13;98301.59;;;23.90;73.30
28008;BME280;15333;50.010;20.020;2023-07-29T07:12:14;98298.69;;;23.78;72.24
28008;BME280;15333;50.010;20.020;2023-07-29T07:15:15;98295.97;;;23.52;73.38
28008;BME280;15333;50.010;20.020;2023-07-29T07:18:16;98292.16;;;23.59;75.15
28008;BME280;15333;50.010;20.020;2023-07-29T07:21:17;98296.56;;;23.54;75.06
28008;BME280;15333;50.010;20.020;2023-07-29T07:24:18;98289.84;;;23.69;74.75
28008;BME280;15333;50.010;20.020;2023-07-29T07:27:19;98286.28;;;23.62;74.27
28008;BME280;15333;50.010;20.020;2023-07-29T07:30:20;98296.56;;;23.73;74.05
28008;BME280;15333;50.010;20.020;2023-07-29T07:33:21;98296.38;;;23.68;74.13
28008;BME280;15333;50.010;20.020;2023-07-29T07:36:22;98288.16;;;23.81;74.79
28008;BME280;15333;50.010;20.020;2023-07-29T07:39:24;98295.72;;;23.93;74.75
28008;BME280;15333;50.010;20.020;2023-07-29T07:42:24;98295.31;;;23.63;75.66
28008;BME280;15333;50.010;20.020;2023-07-29T07:45:25;98294.44;;;23.82;74.52
28008;BME280;15333;50.010;20.020;2023-07-29T07:48:30;98292.28;;;24.17;73.16
28008;BME280;15333;50.010;20.020;2023-07-29T07:51:31;98286.81;;;24.24;72.51
28008;BME280;15333;50.010;20.020;2023-07-29T07:54:31;98285.44;;;24.52;71.99
28008;BME280;15333;50.010;20.020;2023-07-29T07:57:32;98295.97;;;24.55;70.01
28008;BME280;15333;50.010;20.020;2023-07-29T08:00:33;98288.06;;;24.34;70.40
28008;BME280;15333;50.010;20.020;2023-07-29T08:03:35;98283.94;;;23.86;72.55
28008;BME280;15333;50.010;20.020;2023-07-29T08:06:36;98280.75;;;24.02;71.82
28008;BME280;15333;50.010;20.020;2023-07-29T08:09:37;98275.56;;;24.51;70.80
28008;BME280;15333;50.010;20.020;2023-07-29T08:12:37;98277.06;;;24.47;69.79
28008;BME280;15333;50.010;20.020;2023-07-29T08:15:38;98288.09;;;24.21;72.33
28008;BME280;15333;50.010;20.020;2023-07-29T08:18:39;98288.53;;;23.98;73.18
28008;BME280;15333;50.010;20.020;2023-07-29T08:21:40;98286.03;;;23.97;72.13
28008;BME280;15333;50.010;20.020;2023-07-29T08:24:41;98280.50;;;24.23;72.72
28008;BME280;15333;50.010;20.020;2023-07-29T08:27:42;98280.09;;;24.13;72.74
28008;BME280;15333;50.010;20.020;2023-07-29T08:30:42;98283.47;;;24.28;71.71
28008;BME280;15333;50.010;20.020;2023-07-29T08:33:43;98273.81;;;24.70;70.49
28008;BME280;15333;50.010;20.020;2023-07-29T08:36:44;98274.25;;;25.05;69.06
28008;BME280;15333;50.010;20.020;2023-07-29T08:39:45;98267.16;;;25.22;68.80
28008;BME280;15333;50.010;20.020;2023-07-29T08:42:47;98262.69;;;24.65;69.15
28008;BME280;15333;50.010;20.020;2023-07-29T08:45:49;98268.97;;;24.72;68.42
28008;BME280;15333;50.010;20.020;2023-07-29T08:48:50;98260.84;;;24.46;67.94
28008;BME280;15333;50.010;20.020;2023-07-29T08:51:53;98263.78;;;24.89;68.24
28008;BME280;15333;50.010;20.020;2023-07-29T08:54:54;98253.19;;;25.62;66.21
28008;BME280;15333;50.010;20.020;2023-07-29T08:57:56;98252.38;;;25.55;65.10
28008;BME280;15333;50.010;20.020;2023-07-29T09:00:57;98257.41;;;25.58;64.00
28008;BME280;15333;50.010;20.020;2023-07-29T09:03:59;98262.81;;;25.40;63.39
28008;BME280;15333;50.010;20.020;2023-07-29T09:07:00;98252.22;;;25.50;62.40
28008;BME280;15333;50.010;20.020;2023-07-29T09:10:01;98256.06;;;25.67;58.78
28008;BME280;15333;50.010;20.020;2023-07-29T09:13:03;98254.50;;;25.53;61.08
28008;BME280;15333;50.010;20.020;2023-07-29T09:16:04;98242.53;;;25.72;60.24
28008;BME280;15333;50.010;20.020;2023-07-29T09:19:05;98234.06;;;26.35;59.25
28008;BME280;15333;50.010;20.020;2023-07-29T09:22:17;98240.59;;;25.97;59.77
28008;BME280;15333;50.010;20.020;2023-07-29T09:25:23;98239.13;;;25.95;59.33
28008;BME280;15333;50.010;20.020;2023-07-29T09:28:24;98236.19;;;26.15;58.98
28008;BME280;15333;50.010;20.020;2023-07-29T09:31:26;98232.34;;;26.52;58.04
28008;BME280;15333;50.010;20.020;2023-07-29T09:34:28;98236.84;;;26.95;57.21
28008;BME280;15333;50.010;20.020;2023-07-29T09:37:29;98238.72;;;27.24;56.93
28008;BME280;15333;50.010;20.020;2023-07-29T09:40:39;98240.06;;;27.33;55.37
28008;BME280;15333;50.010;20.020;2023-07-29T09:43:40;98236.81;;;27.13;55.38
28008;BME280;15333;50.010;20.020;2023-07-29T09:46:45;98240.38;;;26.83;55.99
28008;BME280;15333;50.010;20.020;2023-07-29T09:49:46;98234.28;;;26.81;56.34
28008;BME280;15333;50.010;20.020;2023-07-29T09:52:47;98237.38;;;27.15;55.45
28008;BME280;15333;50.010;20.020;2023-07-29T09:55:49;98229.97;;;27.04;55.24
28008;BME280;15333;50.010;20.020;2023-07-29T09:58:51;98223.13;;;27.59;54.40
28008;BME280;15333;50.010;20.020;2023-07-29T10:01:52;98217.56;;;27.13;54.40
28008;BME280;15333;50.010;20.020;2023-07-29T10:04:54;98216.28;;;26.85;55.87
28008;BME280;15333;50.010;20.020;2023-07-29T10:07:56;98217.50;;;26.89;57.06
28008;BME280;15333;50.010;20.020;2023-07-29T10:11:01;98212.81;;;27.20;56.07
28008;BME280;15333;50.010;20.020;2023-07-29T10:14:01;98219.94;;;27.62;55.21
28008;BME280;15333;50.010;20.020;2023-07-29T10:17:06;98224.81;;;27.60;51.78
28008;BME280;15333;50.010;20.020;2023-07-29T10:20:10;98228.41;;;27.08;52.98
28008;BME280;15333;50.010;20.020;2023-07-29T10:23:12;98230.59;;;26.87;54.89
28008;BME280;15333;50.010;20.020;2023-07-29T10:26:16;98232.75;;;26.85;54.99
28008;BME280;15333;50.010;20.020;2023-07-29T10:29:23;98231.28;;;26.53;57.57
28008;BME280;15333;50.010;20.020;2023-07-29T10:32:25;98228.66;;;26.76;56.31
28008;BME280;15333;50.010;20.020;2023-07-29T10:35:27;98233.22;;;26.82;56.61
28008;BME280;15333;50.010;20.020;2023-07-29T10:38:29;98230.78;;;26.74;58.19
28008;BME280;15333;50.010;20.020;2023-07-29T10:44:55;98239.06;;;25.83;63.97
28008;BME280;15333;50.010;20.020;2023-07-29T10:47:56;98247.69;;;25.62;66.45
28008;BME280;15333;50.010;20.020;2023-07-29T10:51:29;98240.41;;;25.74;65.89
28008;BME280;15333;50.010;20.020;2023-07-29T10:54:41;98234.22;;;25.60;67.70
28008;BME280;15333;50.010;20.020;2023-07-29T10:57:44;98233.59;;;26.20;66.17
28008;BME280;15333;50.010;20.020;2023-07-29T11:00:46;98231.81;;;26.62;65.15
28008;BME280;15333;50.010;20.020;2023-07-29T11:04:22;98218.28;;;26.78;62.51
28008;BME280;15333;50.010;20.020;2023-07-29T11:07:26;98214.94;;;27.06;61.72
28008;BME280;15333;50.010;20.020;2023-07-29T11:10:27;98212.44;;;26.86;62.34
28008;BME280;15333;50.010;20.020;2023-07-29T11:13:30;98204.41;;;27.15;60.76
28008;BME280;15333;50.010;20.020;2023-07-29T11:16:31;98209.09;;;26.84;60.70
28008;BME280;15333;50.010;20.020;2023-07-29T11:19:32;98203.44;;;26.79;59.05
28008;BME280;15333;50.010;20.020;2023-07-29T11:22:35;98201.19;;;26.76;59.91
28008;BME280;15333;50.010;20.020;2023-07-29T11:25:36;98200.59;;;27.16;59.24
28008;BME280;15333;50.010;20.020;2023-07-29T11:28:39;98202.03;;;27.07;57.37
28008;BME280;15333;50.010;20.020;2023-07-29T11:31:40;98197.66;;;26.28;62.04
28008;BME280;15333;50.010;20.020;2023-07-29T11:34:42;98193.81;;;26.88;60.62
28008;BME280;15333;50.010;20.020;2023-07-29T11:37:50;98193.28;;;26.68;60.55
28008;BME280;15333;50.010;20.020;2023-07-29T11:41:01;98198.97;;;26.37;62.26
28008;BME280;15333;50.010;20.020;2023-07-29T11:44:09;98193.50;;;25.82;66.01
28008;BME280;15333;50.010;20.020;2023-07-29T11:47:16;98204.09;;;25.79;68.21
28008;BME280;15333;50.010;20.020;2023-07-29T11:50:18;98205.38;;;25.76;67.60
28008;BME280;15333;50.010;20.020;2023-07-29T11:53:20;98200.06;;;25.99;68.53
28008;BME280;15333;50.010;20.020;2023-07-29T11:56:21;98201.88;;;26.24;67.61
28008;BME280;15333;50.010;20.020;2023-07-29T11:59:24;98204.31;;;25.95;64.57
28008;BME280;15333;50.010;20.020;2023-07-29T12:02:25;98208.38;;;25.93;66.78
28008;BME280;15333;50.010;20.020;2023-07-29T12:05:27;98206.63;;;26.35;65.72
28008;BME280;15333;50.010;20.020;2023-07-29T12:08:28;98199.91;;;26.49;61.85
28008;BME280;15333;50.010;20.020;2023-07-29T12:11:29;98207.97;;;26.44;61.26
28008;BME280;15333;50.010;20.020;2023-07-29T12:14:30;98202.72;;;26.42;61.82
28008;BME280;15333;50.010;20.020;2023-07-29T12:17:31;98193.28;;;26.68;62.32
28008;BME280;15333;50.010;20.020;2023-07-29T12:20:32;98184.22;;;27.09;62.26
28008;BME280;15333;50.010;20.020;2023-07-29T12:23:34;98187.16;;;27.73;61.89
28008;BME280;15333;50.010;20.020;2023-07-29T12:26:36;98190.53;;;27.63;58.59
28008;BME280;15333;50.010;20.020;2023-07-29T12:29:41;98198.50;;;27.41;58.78
28008;BME280;15333;50.010;20.020;2023-07-29T12:32:46;98186.03;;;27.50;56.96
28008;BME280;15333;50.010;20.020;2023-07-29T12:35:47;98181.38;;;27.97;56.79
28008;BME280;15333;50.010;20.020;2023-07-29T12:38:48;98173.09;;;28.49;55.05
28008;BME280;15333;50.010;20.020;2023-07-29T12:41:51;98172.28;;;28.49;53.19
28008;BME280;15333;50.010;20.020;2023-07-29T12:44:52;98186.06;;;27.74;55.16
28008;BME280;15333;50.010;20.020;2023-07-29T12:47:53;98172.56;;;27.49;55.91
28008;BME280;15333;50.010;20.020;2023-07-29T12:50:54;98171.09;;;28.04;56.79
28008;BME280;15333;50.010;20.020;2023-07-29T12:53:55;98172.34;;;27.62;59.15
28008;BME280;15333;50.010;20.020;2023-07-29T12:56:56;98164.91;;;27.74;56.77
28008;BME280;15333;50.010;20.020;2023-07-29T12:59:57;98165.50;;;27.41;56.64
28008;BME280;15333;50.010;20.020;2023-07-29T13:02:58;98171.75;;;27.60;55.52
28008;BME280;15333;50.010;20.020;2023-07-29T13:05:59;98167.06;;;27.60;56.04
28008;BME280;15333;50.010;20.020;2023-07-29T13:09:00;98162.19;;;27.62;56.12
28008;BME280;15333;50.010;20.020;2023-07-29T13:12:01;98162.41;;;27.73;55.59
28008;BME280;15333;50.010;20.020;2023-07-29T13:15:02;98161.13;;;28.15;54.10
28008;BME280;15333;50.010;20.020;2023-07-29T13:18:03;98155.09;;;27.78;56.22
28008;BME280;15333;50.010;20.020;2023-07-29T13:21:04;98148.47;;;28.42;55.34
28008;BME280;15333;50.010;20.020;2023-07-29T13:24:05;98142.69;;;28.84;53.24
28008;BME280;15333;50.010;20.020;2023-07-29T13:27:06;98132.19;;;28.01;55.35
28008;BME280;15333;50.010;20.020;2023-07-29T13:30:08;98130.38;;;27.66;56.76
28008;BME280;15333;50.010;20.020;2023-07-29T13:33:09;98138.59;;;27.08;57.21
28008;BME280;15333;50.010;20.020;2023-07-29T13:36:10;98128.56;;;27.14;57.93
28008;BME280;15333;50.010;20.020;2023-07-29T13:39:11;98124.13;;;27.83;56.89
28008;BME280;15333;50.010;20.020;2023-07-29T13:42:11;98129.63;;;27.83;55.99
28008;BME280;15333;50.010;20.020;2023-07-29T13:45:12;98134.78;;;27.67;54.61
28008;BME280;15333;50.010;20.020;2023-07-29T13:48:13;98137.03;;;27.01;55.17
28008;BME280;15333;50.010;20.020;2023-07-29T13:51:14;98141.31;;;26.97;56.58
28008;BME280;15333;50.010;20.020;2023-07-29T13:54:15;98141.44;;;26.60;57.12
28008;BME280;15333;50.010;20.020;2023-07-29T13:57:16;98140.25;;;26.56;58.29
28008;BME280;15333;50.010;20.020;2023-07-29T14:00:17;98141.34;;;26.37;58.18
28008;BME280;15333;50.010;20.020;2023-07-29T14:03:18;98137.88;;;26.30;58.27
28008;BME280;15333;50.010;20.020;2023-07-29T14:06:19;98141.72;;;26.29;58.28
28008;BME280;15333;50.010;20.020;2023-07-29T14:09:20;98132.88;;;25.72;60.55
28008;BME280;15333;50.010;20.020;2023-07-29T14:12:21;98133.91;;;25.53;61.64
28008;BME280;15333;50.010;20.020;2023-07-29T14:15:22;98133.34;;;25.26;63.63
28008;BME280;15333;50.010;20.020;2023-07-29T14:18:23;98139.66;;;25.26;65.88
28008;BME280;15333;50.010;20.020;2023-07-29T14:21:24;98138.66;;;24.96;68.37
28008;BME280;15333;50.010;20.020;2023-07-29T14:24:25;98132.47;;;24.76;69.75
28008;BME280;15333;50.010;20.020;2023-07-29T14:27:26;98138.38;;;24.73;70.98
28008;BME280;15333;50.010;20.020;2023-07-29T14:30:27;98142.25;;;24.65;74.41
28008;BME280;15333;50.010;20.020;2023-07-29T14:33:28;98153.06;;;24.09;78.95
28008;BME280;15333;50.010;20.020;2023-07-29T14:36:29;98148.44;;;23.19;88.95
28008;BME280;15333;50.010;20.020;2023-07-29T14:39:30;98154.25;;;22.37;100.00
28008;BME280;15333;50.010;20.020;2023-07-29T14:42:30;98152.03;;;21.99;100.00
28008;BME280;15333;50.010;20.020;2023-07-29T14:45:31;98161.56;;;22.16;100.00
28008;BME280;15333;50.010;20.020;2023-07-29T14:48:32;98167.88;;;22.30;100.00
28008;BME280;15333;50.010;20.020;2023-07-29T14:51:34;98165.41;;;22.55;100.00
28008;BME280;15333;50.010;20.020;2023-07-29T14:54:35;98161.28;;;22.98;100.00
28008;BME280;15333;50.010;20.020;2023-07-29T14:57:36;98162.53;;;23.29;100.00
28008;BME280;15333;50.010;20.020;2023-07-29T15:00:36;98163.34;;;23.36;100.00
28008;BME280;15333;50.010;20.020;2023-07-29T15:03:37;98144.25;;;23.49;100.00
28008;BME280;15333;50.010;20.020;2023-07-29T15:06:39;98146.13;;;23.42;100.00
28008;BME280;15333;50.010;20.020;2023-07-29T15:09:40;98152.22;;;23.24;97.01
28008;BME280;15333;50.010;20.020;2023-07-29T15:12:40;98153.88;;;23.45;98.19
28008;BME280;15333;50.010;20.020;2023-07-29T15:15:42;98149.47;;;23.57;92.60
28008;BME280;15333;50.010;20.020;2023-07-29T15:18:43;98156.38;;;23.60;90.59
28008;BME280;15333;50.010;20.020;2023-07-29T15:21:44;98151.78;;;23.47;91.27
28008;BME280;15333;50.010;20.020;2023-07-29T15:24:45;98150.34;;;23.51;89.68
28008;BME280;15333;50.010;20.020;2023-07-29T15:27:47;98154.94;;;23.44;88.17
28008;BME280;15333;50.010;20.020;2023-07-29T15:30:48;98145.72;;;23.12;88.95
28008;BME280;15333;50.010;20.020;2023-07-29T15:33:49;98153.72;;;23.00;92.60
28008;BME280;15333;50.010;20.020;2023-07-29T15:36:49;98147.81;;;23.30;89.47
28008;BME280;15333;50.010;20.020;2023-07-29T15:39:50;98152.06;;;22.86;90.95
28008;BME280;15333;50.010;20.020;2023-07-29T15:42:51;98152.81;;;22.67;91.54
28008;BME280;15333;50.010;20.020;2023-07-29T15:45:52;98159.75;;;22.56;94.65
28008;BME280;15333;50.010;20.020;2023-07-29T15:48:53;98154.28;;;22.50;94.85
28008;BME280;15333;50.010;20.020;2023-07-29T15:51:56;98154.09;;;22.58;95.91